createdAt,value
2019-01-27T00:00:50.348Z,954.20
2019-01-27T00:01:50.308Z,954.12
2019-01-27T00:02:50.246Z,954.09
2019-01-27T00:03:50.210Z,954.10
2019-01-27T00:04:50.170Z,954.06
2019-01-27T00:05:50.119Z,954.05
2019-01-27T00:06:50.074Z,953.99
2019-01-27T00:07:50.033Z,953.90
2019-01-27T00:08:49.986Z,953.91
2019-01-27T00:09:49.942Z,953.79
2019-01-27T00:10:49.894Z,953.77
2019-01-27T00:11:49.857Z,953.74
2019-01-27T00:12:49.810Z,953.75
2019-01-27T00:13:49.766Z,953.70
2019-01-27T00:14:49.723Z,953.70
2019-01-27T00:15:49.679Z,953.65
2019-01-27T00:16:49.637Z,953.69
2019-01-27T00:17:49.595Z,953.67
2019-01-27T00:18:49.548Z,953.69
2019-01-27T00:19:49.504Z,953.69
2019-01-27T00:20:49.466Z,953.71
2019-01-27T00:21:49.416Z,953.66
2019-01-27T00:22:49.372Z,953.70
2019-01-27T00:23:49.330Z,953.69
2019-01-27T00:24:49.283Z,953.59
2019-01-27T00:25:49.243Z,953.69
2019-01-27T00:26:49.192Z,953.61
2019-01-27T00:27:49.152Z,953.53
2019-01-27T00:28:49.108Z,953.52
2019-01-27T00:29:49.064Z,953.54
2019-01-27T00:30:49.021Z,953.49
2019-01-27T00:31:48.979Z,953.47
2019-01-27T00:32:48.927Z,953.49
2019-01-27T00:33:48.890Z,953.50
2019-01-27T00:34:48.844Z,953.47
2019-01-27T00:35:48.801Z,953.48
2019-01-27T00:36:48.752Z,953.41
2019-01-27T00:37:48.712Z,953.39
2019-01-27T00:38:48.667Z,953.38
2019-01-27T00:39:48.625Z,953.36
2019-01-27T00:40:48.582Z,953.35
2019-01-27T00:41:48.536Z,953.28
2019-01-27T00:42:48.491Z,953.30
2019-01-27T00:43:48.449Z,953.23
2019-01-27T00:44:48.409Z,953.26
2019-01-27T00:45:48.358Z,953.19
2019-01-27T00:46:48.317Z,953.12
2019-01-27T00:47:48.273Z,953.14
2019-01-27T00:48:48.228Z,953.11
2019-01-27T00:49:48.184Z,953.14
2019-01-27T00:50:48.140Z,953.12
2019-01-27T00:51:48.098Z,953.10
2019-01-27T00:52:48.052Z,953.08
2019-01-27T00:53:48.007Z,953.07
2019-01-27T00:54:47.961Z,952.95
2019-01-27T00:55:47.920Z,952.96
2019-01-27T00:56:47.877Z,952.91
2019-01-27T00:57:47.833Z,952.93
2019-01-27T00:58:47.790Z,952.87
2019-01-27T00:59:47.750Z,952.83
2019-01-27T01:00:47.701Z,952.85
2019-01-27T01:01:47.657Z,952.80
2019-01-27T01:02:47.613Z,952.81
2019-01-27T01:03:47.577Z,952.75
2019-01-27T01:04:47.524Z,952.78
2019-01-27T01:05:47.480Z,952.76
2019-01-27T01:06:47.436Z,952.73
2019-01-27T01:07:47.568Z,952.72
2019-01-27T01:08:47.350Z,952.66
2019-01-27T01:09:47.304Z,952.67
2019-01-27T01:10:47.259Z,952.65
2019-01-27T01:11:47.215Z,952.49
2019-01-27T01:12:47.169Z,952.48
2019-01-27T01:13:47.123Z,952.50
2019-01-27T01:14:47.105Z,952.49
2019-01-27T01:15:47.042Z,952.49
2019-01-27T01:16:46.997Z,952.45
2019-01-27T01:17:46.952Z,952.47
2019-01-27T01:18:46.907Z,952.41
2019-01-27T01:19:46.863Z,952.41
2019-01-27T01:20:46.823Z,952.43
2019-01-27T01:21:46.780Z,952.42
2019-01-27T01:22:46.734Z,952.36
2019-01-27T01:23:46.688Z,952.37
2019-01-27T01:24:46.644Z,952.35
2019-01-27T01:25:46.599Z,952.31
2019-01-27T01:26:46.552Z,952.30
2019-01-27T01:27:46.511Z,952.24
2019-01-27T01:28:46.464Z,952.26
2019-01-27T01:29:46.426Z,952.23
2019-01-27T01:30:46.392Z,952.22
2019-01-27T01:31:46.333Z,952.22
2019-01-27T01:32:46.289Z,952.19
2019-01-27T01:33:46.247Z,952.19
2019-01-27T01:34:46.204Z,952.12
2019-01-27T01:35:46.160Z,952.15
2019-01-27T01:36:46.116Z,952.13
2019-01-27T01:37:46.068Z,952.10
2019-01-27T01:38:46.023Z,952.17
2019-01-27T01:39:45.984Z,952.10
2019-01-27T01:40:45.935Z,952.12
2019-01-27T01:41:45.942Z,952.09
2019-01-27T01:42:45.850Z,952.07
2019-01-27T01:43:45.805Z,952.06
2019-01-27T01:44:45.765Z,952.10
2019-01-27T01:45:45.719Z,952.10
2019-01-27T01:46:45.670Z,952.06
2019-01-27T01:47:45.630Z,952.03
2019-01-27T01:48:45.585Z,952.02
2019-01-27T01:49:45.543Z,952.01
2019-01-27T01:50:45.498Z,951.99
2019-01-27T01:51:45.451Z,952.03
2019-01-27T01:52:45.410Z,951.94
2019-01-27T01:53:45.366Z,951.98
2019-01-27T01:54:45.326Z,951.93
2019-01-27T01:55:45.278Z,951.90
2019-01-27T01:56:45.230Z,951.94
2019-01-27T01:57:45.190Z,951.93
2019-01-27T01:58:45.146Z,951.88
2019-01-27T01:59:45.136Z,951.83
2019-01-27T02:00:45.096Z,951.86
2019-01-27T02:01:45.012Z,951.85
2019-01-27T02:02:44.967Z,951.86
2019-01-27T02:03:44.925Z,951.86
2019-01-27T02:04:44.882Z,951.77
2019-01-27T02:05:44.835Z,951.74
2019-01-27T02:06:44.792Z,951.75
2019-01-27T02:07:44.747Z,951.74
2019-01-27T02:08:44.703Z,951.70
2019-01-27T02:09:44.661Z,951.69
2019-01-27T02:10:44.622Z,951.67
2019-01-27T02:11:44.573Z,951.65
2019-01-27T02:12:44.534Z,951.67
2019-01-27T02:13:44.499Z,951.53
2019-01-27T02:14:44.439Z,951.57
2019-01-27T02:15:44.400Z,951.57
2019-01-27T02:16:44.353Z,951.52
2019-01-27T02:17:44.311Z,951.53
2019-01-27T02:18:44.268Z,951.46
2019-01-27T02:19:44.220Z,951.43
2019-01-27T02:20:44.175Z,951.36
2019-01-27T02:21:44.141Z,951.39
2019-01-27T02:22:44.094Z,951.35
2019-01-27T02:23:44.044Z,951.39
2019-01-27T02:24:43.999Z,951.34
2019-01-27T02:25:43.954Z,951.32
2019-01-27T02:26:43.942Z,951.30
2019-01-27T02:27:43.865Z,951.30
2019-01-27T02:28:43.831Z,951.33
2019-01-27T02:29:43.782Z,951.30
2019-01-27T02:30:43.744Z,951.30
2019-01-27T02:31:43.694Z,951.29
2019-01-27T02:32:43.652Z,951.27
2019-01-27T02:33:43.606Z,951.27
2019-01-27T02:34:43.560Z,951.23
2019-01-27T02:35:43.517Z,951.21
2019-01-27T02:36:43.475Z,951.21
2019-01-27T02:37:43.428Z,951.15
2019-01-27T02:38:43.389Z,951.16
2019-01-27T02:39:43.342Z,951.10
2019-01-27T02:40:43.299Z,951.08
2019-01-27T02:41:43.254Z,951.08
2019-01-27T02:42:43.207Z,951.02
2019-01-27T02:43:43.164Z,951.07
2019-01-27T02:44:43.122Z,951.05
2019-01-27T02:45:43.075Z,950.98
2019-01-27T02:46:43.031Z,951.01
2019-01-27T02:47:42.991Z,950.94
2019-01-27T02:48:42.943Z,950.97
2019-01-27T02:49:43.009Z,950.98
2019-01-27T02:50:42.861Z,950.89
2019-01-27T02:51:42.812Z,950.94
2019-01-27T02:52:42.768Z,950.95
2019-01-27T02:53:42.726Z,950.91
2019-01-27T02:54:42.681Z,950.96
2019-01-27T02:55:42.651Z,950.97
2019-01-27T02:56:42.592Z,950.92
2019-01-27T02:57:42.544Z,950.88
2019-01-27T02:58:42.509Z,950.79
2019-01-27T02:59:42.455Z,950.75
2019-01-27T03:00:42.416Z,950.72
2019-01-27T03:01:42.367Z,950.71
2019-01-27T03:02:42.327Z,950.70
2019-01-27T03:03:42.280Z,950.67
2019-01-27T03:04:42.234Z,950.71
2019-01-27T03:05:42.191Z,950.59
2019-01-27T03:06:42.147Z,950.59
2019-01-27T03:07:42.103Z,950.61
2019-01-27T03:08:42.062Z,950.57
2019-01-27T03:09:42.015Z,950.53
2019-01-27T03:10:41.972Z,950.43
2019-01-27T03:11:41.926Z,950.40
2019-01-27T03:12:41.882Z,950.36
2019-01-27T03:13:41.838Z,950.40
2019-01-27T03:14:41.793Z,950.43
2019-01-27T03:15:41.751Z,950.39
2019-01-27T03:16:41.705Z,950.34
2019-01-27T03:17:41.661Z,950.36
2019-01-27T03:18:41.616Z,950.23
2019-01-27T03:19:41.597Z,950.26
2019-01-27T03:20:41.528Z,950.21
2019-01-27T03:21:41.485Z,950.24
2019-01-27T03:22:41.445Z,950.23
2019-01-27T03:23:41.404Z,950.17
2019-01-27T03:24:41.354Z,950.19
2019-01-27T03:25:41.308Z,950.16
2019-01-27T03:26:41.262Z,950.12
2019-01-27T03:27:41.223Z,950.11
2019-01-27T03:28:41.194Z,950.12
2019-01-27T03:29:41.132Z,950.02
2019-01-27T03:30:41.087Z,950.03
2019-01-27T03:31:41.053Z,950.02
2019-01-27T03:32:41.000Z,950.01
2019-01-27T03:33:40.951Z,950.00
2019-01-27T03:34:40.911Z,950.00
2019-01-27T03:35:40.870Z,949.98
2019-01-27T03:36:40.824Z,949.92
2019-01-27T03:37:40.778Z,949.94
2019-01-27T03:38:40.735Z,949.87
2019-01-27T03:39:40.691Z,949.84
2019-01-27T03:40:40.649Z,949.81
2019-01-27T03:41:40.595Z,949.74
2019-01-27T03:42:40.558Z,949.77
2019-01-27T03:43:40.517Z,949.73
2019-01-27T03:44:40.471Z,949.71
2019-01-27T03:45:40.429Z,949.64
2019-01-27T03:46:40.382Z,949.59
2019-01-27T03:47:40.339Z,949.64
2019-01-27T03:48:40.294Z,949.58
2019-01-27T03:49:40.242Z,949.63
2019-01-27T03:50:40.207Z,949.59
2019-01-27T03:51:40.163Z,949.49
2019-01-27T03:52:40.118Z,949.49
2019-01-27T03:53:40.066Z,949.42
2019-01-27T03:54:40.031Z,949.39
2019-01-27T03:55:39.987Z,949.38
2019-01-27T03:56:39.941Z,949.33
2019-01-27T03:57:39.891Z,949.34
2019-01-27T03:58:39.853Z,949.23
2019-01-27T03:59:39.808Z,949.29
2019-01-27T04:00:39.765Z,949.22
2019-01-27T04:01:39.715Z,949.22
2019-01-27T04:02:39.677Z,949.24
2019-01-27T04:03:39.633Z,949.20
2019-01-27T04:04:39.588Z,949.17
2019-01-27T04:05:39.543Z,949.11
2019-01-27T04:06:39.496Z,949.19
2019-01-27T04:07:39.458Z,949.12
2019-01-27T04:08:39.412Z,949.11
2019-01-27T04:09:39.368Z,949.10
2019-01-27T04:10:39.349Z,949.02
2019-01-27T04:11:39.283Z,949.02
2019-01-27T04:12:39.297Z,949.06
2019-01-27T04:13:39.187Z,949.04
2019-01-27T04:14:39.148Z,949.01
2019-01-27T04:15:39.103Z,949.02
2019-01-27T04:16:39.061Z,949.00
2019-01-27T04:17:39.014Z,949.05
2019-01-27T04:18:38.971Z,949.01
2019-01-27T04:19:38.932Z,948.86
2019-01-27T04:20:38.884Z,948.96
2019-01-27T04:21:38.833Z,948.93
2019-01-27T04:22:38.821Z,948.98
2019-01-27T04:23:38.751Z,948.92
2019-01-27T04:24:38.708Z,948.92
2019-01-27T04:25:38.660Z,948.90
2019-01-27T04:26:38.616Z,948.80
2019-01-27T04:27:38.574Z,948.88
2019-01-27T04:28:38.530Z,948.86
2019-01-27T04:29:38.484Z,948.80
2019-01-27T04:30:38.439Z,948.82
2019-01-27T04:31:38.393Z,948.82
2019-01-27T04:32:38.353Z,948.80
2019-01-27T04:33:38.309Z,948.75
2019-01-27T04:34:38.269Z,948.70
2019-01-27T04:35:38.223Z,948.66
2019-01-27T04:36:38.178Z,948.60
2019-01-27T04:37:38.132Z,948.58
2019-01-27T04:38:38.267Z,948.65
2019-01-27T04:39:38.047Z,948.59
2019-01-27T04:40:38.001Z,948.64
2019-01-27T04:41:37.951Z,948.56
2019-01-27T04:42:37.911Z,948.50
2019-01-27T04:43:37.868Z,948.53
2019-01-27T04:44:37.820Z,948.51
2019-01-27T04:45:37.774Z,948.45
2019-01-27T04:46:37.737Z,948.43
2019-01-27T04:47:37.693Z,948.39
2019-01-27T04:48:37.646Z,948.41
2019-01-27T04:49:37.603Z,948.43
2019-01-27T04:50:37.563Z,948.45
2019-01-27T04:51:37.515Z,948.39
2019-01-27T04:52:37.468Z,948.38
2019-01-27T04:53:37.423Z,948.41
2019-01-27T04:54:37.386Z,948.40
2019-01-27T04:55:37.336Z,948.40
2019-01-27T04:56:37.295Z,948.35
2019-01-27T04:57:37.249Z,948.37
2019-01-27T04:58:37.205Z,948.42
2019-01-27T04:59:37.159Z,948.38
2019-01-27T05:00:37.121Z,948.36
2019-01-27T05:01:37.071Z,948.39
2019-01-27T05:02:37.031Z,948.33
2019-01-27T05:03:36.987Z,948.33
2019-01-27T05:04:36.940Z,948.32
2019-01-27T05:05:36.894Z,948.30
2019-01-27T05:06:36.875Z,948.34
2019-01-27T05:07:36.804Z,948.31
2019-01-27T05:08:36.764Z,948.32
2019-01-27T05:09:36.718Z,948.30
2019-01-27T05:10:36.676Z,948.32
2019-01-27T05:11:36.640Z,948.29
2019-01-27T05:12:36.589Z,948.26
2019-01-27T05:13:36.545Z,948.27
2019-01-27T05:14:36.506Z,948.29
2019-01-27T05:15:36.450Z,948.24
2019-01-27T05:16:36.412Z,948.27
2019-01-27T05:17:36.406Z,948.25
2019-01-27T05:18:36.323Z,948.23
2019-01-27T05:19:36.278Z,948.24
2019-01-27T05:20:36.234Z,948.29
2019-01-27T05:21:36.190Z,948.27
2019-01-27T05:22:36.151Z,948.25
2019-01-27T05:23:36.103Z,948.21
2019-01-27T05:24:36.062Z,948.21
2019-01-27T05:25:36.013Z,948.21
2019-01-27T05:26:35.974Z,948.17
2019-01-27T05:27:35.967Z,948.15
2019-01-27T05:28:35.961Z,948.12
2019-01-27T05:29:35.836Z,948.12
2019-01-27T05:30:35.793Z,948.08
2019-01-27T05:31:35.749Z,948.04
2019-01-27T05:32:35.768Z,948.01
2019-01-27T05:33:35.660Z,948.06
2019-01-27T05:34:35.622Z,948.01
2019-01-27T05:35:35.573Z,947.98
2019-01-27T05:36:35.532Z,947.96
2019-01-27T05:37:35.477Z,947.91
2019-01-27T05:38:35.440Z,947.89
2019-01-27T05:39:35.398Z,947.92
2019-01-27T05:40:35.364Z,947.81
2019-01-27T05:41:35.314Z,947.80
2019-01-27T05:42:35.264Z,947.77
2019-01-27T05:43:35.214Z,947.73
2019-01-27T05:44:37.090Z,947.72
2019-01-27T05:45:37.061Z,947.64
2019-01-27T05:46:35.854Z,947.66
2019-01-27T05:47:36.649Z,947.63
2019-01-27T05:48:36.617Z,947.61
2019-01-27T05:49:36.615Z,947.59
2019-01-27T05:50:36.580Z,947.57
2019-01-27T05:51:34.866Z,947.61
2019-01-27T05:52:34.819Z,947.56
2019-01-27T05:53:34.779Z,947.63
2019-01-27T05:54:34.735Z,947.58
2019-01-27T05:55:36.623Z,947.61
2019-01-27T05:56:35.213Z,947.57
2019-01-27T05:57:35.212Z,947.59
2019-01-27T05:58:35.219Z,947.63
2019-01-27T05:59:35.363Z,947.63
2019-01-27T06:00:35.164Z,947.58
2019-01-27T06:01:36.087Z,947.59
2019-01-27T06:02:35.014Z,947.60
2019-01-27T06:03:35.192Z,947.52
2019-01-27T06:04:34.365Z,947.46
2019-01-27T06:05:34.847Z,947.47
2019-01-27T06:06:34.737Z,947.48
2019-01-27T06:07:34.683Z,947.46
2019-01-27T06:08:35.421Z,947.50
2019-01-27T06:09:35.632Z,947.48
2019-01-27T06:10:34.640Z,947.42
2019-01-27T06:11:34.815Z,947.41
2019-01-27T06:12:34.766Z,947.43
2019-01-27T06:13:35.591Z,947.45
2019-01-27T06:14:33.856Z,947.43
2019-01-27T06:15:34.589Z,947.46
2019-01-27T06:16:35.611Z,947.46
2019-01-27T06:17:34.574Z,947.48
2019-01-27T06:18:36.141Z,947.51
2019-01-27T06:19:35.150Z,947.45
2019-01-27T06:20:35.166Z,947.42
2019-01-27T06:21:35.145Z,947.42
2019-01-27T06:22:35.110Z,947.46
2019-01-27T06:23:33.465Z,947.46
2019-01-27T06:24:33.464Z,947.34
2019-01-27T06:25:35.104Z,947.39
2019-01-27T06:26:35.002Z,947.41
2019-01-27T06:27:35.636Z,947.37
2019-01-27T06:28:35.087Z,947.40
2019-01-27T06:29:33.751Z,947.37
2019-01-27T06:30:35.098Z,947.40
2019-01-27T06:31:34.614Z,947.37
2019-01-27T06:32:33.063Z,947.36
2019-01-27T06:33:33.023Z,947.32
2019-01-27T06:34:32.973Z,947.35
2019-01-27T06:35:33.554Z,947.29
2019-01-27T06:36:33.357Z,947.32
2019-01-27T06:37:33.541Z,947.32
2019-01-27T06:38:33.941Z,947.28
2019-01-27T06:39:34.478Z,947.27
2019-01-27T06:40:34.994Z,947.27
2019-01-27T06:41:34.614Z,947.20
2019-01-27T06:42:32.622Z,947.23
2019-01-27T06:43:32.600Z,947.21
2019-01-27T06:44:32.538Z,947.16
2019-01-27T06:45:32.486Z,947.19
2019-01-27T06:46:32.518Z,947.24
2019-01-27T06:47:32.437Z,947.19
2019-01-27T06:48:32.358Z,947.22
2019-01-27T06:49:32.318Z,947.14
2019-01-27T06:50:32.269Z,947.21
2019-01-27T06:51:32.221Z,947.19
2019-01-27T06:52:32.183Z,947.21
2019-01-27T06:53:32.137Z,947.21
2019-01-27T06:54:32.095Z,947.24
2019-01-27T06:55:32.049Z,947.22
2019-01-27T06:56:32.006Z,947.20
2019-01-27T06:57:31.967Z,947.19
2019-01-27T06:58:31.917Z,947.20
2019-01-27T06:59:31.874Z,947.22
2019-01-27T07:00:31.830Z,947.18
2019-01-27T07:01:31.804Z,947.18
2019-01-27T07:02:31.742Z,947.16
2019-01-27T07:03:31.720Z,947.21
2019-01-27T07:04:31.655Z,947.08
2019-01-27T07:05:31.606Z,947.06
2019-01-27T07:06:31.567Z,947.09
2019-01-27T07:07:31.535Z,947.01
2019-01-27T07:08:31.494Z,947.08
2019-01-27T07:09:31.432Z,947.07
2019-01-27T07:10:31.551Z,947.04
2019-01-27T07:11:31.405Z,947.06
2019-01-27T07:12:31.328Z,947.05
2019-01-27T07:13:31.338Z,947.06
2019-01-27T07:14:31.216Z,947.10
2019-01-27T07:15:31.209Z,947.09
2019-01-27T07:16:31.135Z,947.10
2019-01-27T07:17:31.096Z,947.11
2019-01-27T07:18:31.059Z,947.09
2019-01-27T07:19:31.014Z,947.07
2019-01-27T07:20:30.952Z,947.10
2019-01-27T07:21:30.923Z,947.05
2019-01-27T07:22:30.866Z,947.03
2019-01-27T07:23:30.819Z,947.02
2019-01-27T07:24:30.776Z,947.00
2019-01-27T07:25:30.729Z,946.98
2019-01-27T07:26:30.688Z,946.95
2019-01-27T07:27:30.648Z,946.98
2019-01-27T07:28:30.602Z,946.98
2019-01-27T07:29:30.553Z,946.96
2019-01-27T07:30:30.511Z,947.04
2019-01-27T07:31:30.464Z,947.01
2019-01-27T07:32:30.422Z,947.04
2019-01-27T07:33:30.385Z,946.99
2019-01-27T07:34:30.339Z,947.01
2019-01-27T07:35:30.294Z,946.99
2019-01-27T07:36:30.249Z,946.99
2019-01-27T07:37:30.208Z,946.98
2019-01-27T07:38:30.161Z,946.95
2019-01-27T07:39:30.117Z,946.98
2019-01-27T07:40:30.070Z,946.99
2019-01-27T07:41:30.041Z,947.04
2019-01-27T07:42:29.985Z,947.01
2019-01-27T07:43:29.945Z,946.97
2019-01-27T07:44:29.896Z,946.83
2019-01-27T07:45:29.855Z,946.83
2019-01-27T07:46:29.816Z,946.78
2019-01-27T07:47:29.766Z,946.78
2019-01-27T07:48:29.732Z,946.76
2019-01-27T07:49:29.677Z,946.74
2019-01-27T07:50:29.638Z,946.75
2019-01-27T07:51:29.589Z,946.66
2019-01-27T07:52:29.562Z,946.82
2019-01-27T07:53:29.504Z,946.77
2019-01-27T07:54:29.457Z,946.77
2019-01-27T07:55:29.429Z,946.77
2019-01-27T07:56:29.369Z,946.73
2019-01-27T07:57:29.326Z,946.73
2019-01-27T07:58:29.282Z,946.77
2019-01-27T07:59:29.238Z,946.73
2019-01-27T08:00:29.211Z,946.72
2019-01-27T08:01:29.148Z,946.69
2019-01-27T08:02:29.108Z,946.73
2019-01-27T08:03:29.068Z,946.61
2019-01-27T08:04:29.022Z,946.58
2019-01-27T08:05:28.972Z,946.64
2019-01-27T08:06:28.930Z,946.65
2019-01-27T08:07:28.887Z,946.63
2019-01-27T08:08:28.843Z,946.61
2019-01-27T08:09:30.398Z,946.63
2019-01-27T08:10:28.757Z,946.59
2019-01-27T08:11:28.705Z,946.65
2019-01-27T08:12:28.667Z,946.60
2019-01-27T08:13:28.642Z,946.64
2019-01-27T08:14:28.579Z,946.58
2019-01-27T08:15:28.541Z,946.60
2019-01-27T08:16:28.492Z,946.59
2019-01-27T08:17:28.458Z,946.59
2019-01-27T08:18:28.404Z,946.61
2019-01-27T08:19:28.360Z,946.65
2019-01-27T08:20:28.321Z,946.63
2019-01-27T08:21:28.271Z,946.63
2019-01-27T08:22:28.234Z,946.65
2019-01-27T08:23:28.183Z,946.62
2019-01-27T08:24:28.140Z,946.62
2019-01-27T08:25:28.131Z,946.60
2019-01-27T08:26:28.052Z,946.59
2019-01-27T08:27:28.004Z,946.64
2019-01-27T08:28:27.972Z,946.60
2019-01-27T08:29:27.923Z,946.61
2019-01-27T08:30:27.878Z,946.61
2019-01-27T08:31:27.838Z,946.56
2019-01-27T08:32:27.795Z,946.55
2019-01-27T08:33:27.743Z,946.59
2019-01-27T08:34:27.702Z,946.56
2019-01-27T08:35:27.655Z,946.56
2019-01-27T08:36:27.614Z,946.56
2019-01-27T08:37:27.605Z,946.52
2019-01-27T08:38:27.526Z,946.52
2019-01-27T08:39:27.486Z,946.53
2019-01-27T08:40:27.440Z,946.55
2019-01-27T08:41:27.394Z,946.50
2019-01-27T08:42:27.349Z,946.56
2019-01-27T08:43:27.315Z,946.58
2019-01-27T08:44:27.264Z,946.59
2019-01-27T08:45:27.218Z,946.60
2019-01-27T08:46:27.175Z,946.64
2019-01-27T08:47:27.137Z,946.59
2019-01-27T08:48:27.089Z,946.59
2019-01-27T08:49:27.046Z,946.55
2019-01-27T08:50:27.000Z,946.55
2019-01-27T08:51:26.956Z,946.60
2019-01-27T08:52:26.913Z,946.60
2019-01-27T08:53:26.869Z,946.58
2019-01-27T08:54:26.823Z,946.59
2019-01-27T08:55:26.796Z,946.63
2019-01-27T08:56:26.762Z,946.63
2019-01-27T08:57:26.718Z,946.65
2019-01-27T08:58:26.650Z,946.63
2019-01-27T08:59:26.605Z,946.63
2019-01-27T09:00:26.569Z,946.61
2019-01-27T09:01:26.517Z,946.62
2019-01-27T09:02:26.474Z,946.63
2019-01-27T09:03:26.470Z,946.58
2019-01-27T09:04:26.386Z,946.57
2019-01-27T09:05:26.338Z,946.59
2019-01-27T09:06:26.297Z,946.59
2019-01-27T09:07:26.254Z,946.57
2019-01-27T09:08:26.210Z,946.57
2019-01-27T09:09:26.168Z,946.54
2019-01-27T09:10:26.122Z,946.58
2019-01-27T09:11:26.079Z,946.58
2019-01-27T09:12:26.038Z,946.59
2019-01-27T09:13:25.989Z,946.53
2019-01-27T09:14:25.947Z,946.57
2019-01-27T09:15:25.904Z,946.56
2019-01-27T09:16:25.876Z,946.56
2019-01-27T09:17:25.819Z,946.57
2019-01-27T09:18:25.783Z,946.59
2019-01-27T09:19:25.729Z,946.56
2019-01-27T09:20:25.683Z,946.59
2019-01-27T09:21:25.638Z,946.53
2019-01-27T09:22:25.596Z,946.53
2019-01-27T09:23:25.552Z,946.59
2019-01-27T09:24:25.508Z,946.56
2019-01-27T09:25:25.465Z,946.55
2019-01-27T09:26:25.422Z,946.57
2019-01-27T09:27:25.381Z,946.47
2019-01-27T09:28:25.332Z,946.43
2019-01-27T09:29:25.290Z,946.41
2019-01-27T09:30:25.245Z,946.45
2019-01-27T09:31:25.202Z,946.40
2019-01-27T09:32:25.156Z,946.40
2019-01-27T09:33:25.113Z,946.44
2019-01-27T09:34:25.079Z,946.43
2019-01-27T09:35:25.027Z,946.42
2019-01-27T09:36:24.984Z,946.39
2019-01-27T09:37:24.939Z,946.40
2019-01-27T09:38:24.895Z,946.30
2019-01-27T09:39:24.852Z,946.29
2019-01-27T09:40:24.820Z,946.37
2019-01-27T09:41:24.756Z,946.33
2019-01-27T09:42:24.721Z,946.31
2019-01-27T09:43:24.679Z,946.33
2019-01-27T09:44:24.633Z,946.24
2019-01-27T09:45:24.607Z,946.26
2019-01-27T09:46:24.547Z,946.28
2019-01-27T09:47:24.500Z,946.27
2019-01-27T09:48:24.456Z,946.19
2019-01-27T09:49:24.427Z,946.19
2019-01-27T09:50:24.369Z,946.18
2019-01-27T09:51:24.326Z,946.17
2019-01-27T09:52:24.289Z,946.16
2019-01-27T09:53:24.246Z,946.21
2019-01-27T09:54:24.193Z,946.19
2019-01-27T09:55:24.150Z,946.17
2019-01-27T09:56:24.113Z,946.19
2019-01-27T09:57:24.063Z,946.18
2019-01-27T09:58:24.025Z,946.16
2019-01-27T09:59:23.977Z,946.16
2019-01-27T10:00:23.939Z,946.19
2019-01-27T10:01:23.885Z,946.12
2019-01-27T10:02:23.849Z,946.16
2019-01-27T10:03:23.799Z,946.13
2019-01-27T10:04:23.759Z,946.13
2019-01-27T10:05:23.711Z,946.11
2019-01-27T10:06:23.672Z,946.18
2019-01-27T10:07:23.623Z,946.13
2019-01-27T10:08:23.581Z,946.14
2019-01-27T10:09:23.536Z,946.18
2019-01-27T10:10:23.494Z,946.21
2019-01-27T10:11:26.671Z,946.19
2019-01-27T10:12:23.407Z,946.23
2019-01-27T10:13:23.371Z,946.21
2019-01-27T10:14:23.322Z,946.26
2019-01-27T10:15:23.275Z,946.21
2019-01-27T10:16:23.230Z,946.15
2019-01-27T10:17:23.185Z,946.16
2019-01-27T10:18:23.146Z,946.12
2019-01-27T10:19:23.113Z,946.20
2019-01-27T10:20:23.073Z,946.14
2019-01-27T10:21:23.011Z,946.12
2019-01-27T10:22:22.970Z,946.06
2019-01-27T10:23:22.927Z,946.14
2019-01-27T10:24:22.887Z,946.12
2019-01-27T10:25:22.835Z,946.11
2019-01-27T10:26:22.793Z,946.14
2019-01-27T10:27:22.742Z,946.13
2019-01-27T10:28:22.717Z,946.09
2019-01-27T10:29:22.659Z,946.07
2019-01-27T10:30:22.618Z,946.10
2019-01-27T10:31:22.571Z,946.06
2019-01-27T10:32:22.529Z,946.09
2019-01-27T10:33:22.485Z,946.12
2019-01-27T10:34:22.442Z,946.10
2019-01-27T10:35:22.396Z,946.01
2019-01-27T10:36:22.353Z,946.03
2019-01-27T10:37:22.306Z,946.06
2019-01-27T10:38:22.267Z,946.01
2019-01-27T10:39:22.223Z,946.04
2019-01-27T10:40:22.181Z,946.00
2019-01-27T10:41:22.133Z,946.00
2019-01-27T10:42:22.091Z,945.98
2019-01-27T10:43:22.046Z,945.94
2019-01-27T10:44:22.004Z,945.95
2019-01-27T10:45:21.957Z,945.96
2019-01-27T10:46:21.917Z,945.97
2019-01-27T10:47:21.869Z,945.94
2019-01-27T10:48:21.833Z,945.91
2019-01-27T10:49:21.782Z,945.88
2019-01-27T10:50:21.740Z,945.87
2019-01-27T10:51:21.695Z,945.86
2019-01-27T10:52:21.713Z,945.88
2019-01-27T10:53:21.609Z,945.85
2019-01-27T10:54:21.569Z,945.88
2019-01-27T10:55:21.522Z,945.85
2019-01-27T10:56:21.474Z,945.85
2019-01-27T10:57:21.442Z,945.87
2019-01-27T10:58:21.391Z,945.82
2019-01-27T10:59:21.343Z,945.85
2019-01-27T11:00:21.303Z,945.80
2019-01-27T11:01:21.256Z,945.80
2019-01-27T11:02:21.216Z,945.77
2019-01-27T11:03:21.169Z,945.75
2019-01-27T11:04:21.126Z,945.77
2019-01-27T11:05:21.085Z,945.74
2019-01-27T11:06:21.039Z,945.64
2019-01-27T11:07:20.993Z,945.69
2019-01-27T11:08:20.952Z,945.59
2019-01-27T11:09:20.907Z,945.66
2019-01-27T11:10:20.867Z,945.65
2019-01-27T11:11:20.817Z,945.65
2019-01-27T11:12:20.776Z,945.65
2019-01-27T11:13:20.728Z,945.63
2019-01-27T11:14:20.688Z,945.66
2019-01-27T11:15:20.655Z,945.66
2019-01-27T11:16:20.601Z,945.59
2019-01-27T11:17:20.564Z,945.59
2019-01-27T11:18:20.514Z,945.61
2019-01-27T11:19:20.465Z,945.60
2019-01-27T11:20:20.430Z,945.57
2019-01-27T11:21:20.380Z,945.58
2019-01-27T11:22:20.338Z,945.59
2019-01-27T11:23:20.291Z,945.50
2019-01-27T11:24:20.250Z,945.53
2019-01-27T11:25:20.204Z,945.52
2019-01-27T11:26:20.165Z,945.42
2019-01-27T11:27:20.122Z,945.43
2019-01-27T11:28:20.146Z,945.45
2019-01-27T11:29:20.251Z,945.41
2019-01-27T11:30:19.985Z,945.43
2019-01-27T11:31:19.942Z,945.35
2019-01-27T11:32:19.909Z,945.39
2019-01-27T11:33:19.911Z,945.36
2019-01-27T11:34:19.809Z,945.34
2019-01-27T11:35:19.861Z,945.39
2019-01-27T11:36:19.726Z,945.40
2019-01-27T11:37:19.683Z,945.38
2019-01-27T11:38:19.635Z,945.33
2019-01-27T11:39:19.593Z,945.28
2019-01-27T11:40:19.551Z,945.30
2019-01-27T11:41:19.502Z,945.25
2019-01-27T11:42:19.463Z,945.23
2019-01-27T11:43:19.420Z,945.27
2019-01-27T11:44:19.373Z,945.23
2019-01-27T11:45:19.333Z,945.19
2019-01-27T11:46:19.281Z,945.20
2019-01-27T11:47:19.244Z,945.28
2019-01-27T11:48:19.201Z,945.15
2019-01-27T11:49:19.151Z,945.22
2019-01-27T11:50:19.113Z,945.24
2019-01-27T11:51:19.069Z,945.24
2019-01-27T11:52:19.026Z,945.10
2019-01-27T11:53:18.981Z,945.11
2019-01-27T11:54:18.935Z,945.14
2019-01-27T11:55:18.888Z,945.04
2019-01-27T11:56:18.850Z,945.05
2019-01-27T11:57:18.808Z,944.92
2019-01-27T11:58:18.759Z,945.06
2019-01-27T11:59:18.711Z,945.08
2019-01-27T12:00:18.675Z,944.98
2019-01-27T12:01:18.635Z,944.99
2019-01-27T12:02:18.591Z,945.06
2019-01-27T12:03:18.545Z,945.08
2019-01-27T12:04:18.501Z,945.04
2019-01-27T12:05:18.452Z,945.03
2019-01-27T12:06:18.415Z,945.08
2019-01-27T12:07:18.369Z,945.04
2019-01-27T12:08:18.326Z,944.89
2019-01-27T12:09:18.287Z,944.97
2019-01-27T12:10:18.237Z,944.99
2019-01-27T12:11:18.194Z,945.02
2019-01-27T12:12:18.151Z,945.00
2019-01-27T12:13:18.108Z,944.98
2019-01-27T12:14:18.066Z,944.97
2019-01-27T12:15:18.022Z,944.97
2019-01-27T12:16:17.973Z,945.00
2019-01-27T12:17:17.927Z,945.01
2019-01-27T12:18:17.888Z,944.94
2019-01-27T12:19:17.845Z,945.02
2019-01-27T12:20:17.803Z,944.97
2019-01-27T12:21:17.757Z,944.97
2019-01-27T12:22:17.716Z,944.98
2019-01-27T12:23:17.673Z,944.89
2019-01-27T12:24:17.646Z,944.87
2019-01-27T12:25:17.582Z,944.85
2019-01-27T12:26:17.541Z,944.82
2019-01-27T12:27:17.496Z,944.90
2019-01-27T12:28:17.453Z,944.91